createdAt,value
2018-06-09T00:01:41.085Z,99.90
2018-06-09T00:04:09.807Z,99.90
2018-06-09T00:06:38.461Z,99.90
2018-06-09T00:09:09.267Z,99.90
2018-06-09T00:11:37.888Z,99.90
2018-06-09T00:14:06.612Z,99.90
2018-06-09T00:16:35.318Z,99.90
2018-06-09T00:19:04.058Z,99.90
2018-06-09T00:21:32.815Z,99.90
2018-06-09T00:24:01.614Z,99.90
2018-06-09T00:26:30.213Z,99.90
2018-06-09T00:28:58.854Z,99.90
2018-06-09T00:31:27.676Z,99.90
2018-06-09T00:33:56.362Z,99.90
2018-06-09T00:36:26.112Z,99.90
2018-06-09T00:38:54.838Z,99.90
2018-06-09T00:41:23.595Z,99.90
2018-06-09T00:43:52.267Z,99.90
2018-06-09T00:46:21.111Z,99.90
2018-06-09T00:48:50.619Z,99.90
2018-06-09T00:51:19.292Z,99.90
2018-06-09T00:53:47.926Z,99.90
2018-06-09T00:56:27.752Z,99.90
2018-06-09T00:58:57.446Z,99.90
2018-06-09T01:01:26.137Z,99.90
2018-06-09T01:03:54.783Z,99.90
2018-06-09T01:06:23.401Z,99.90
2018-06-09T01:08:52.029Z,99.90
2018-06-09T01:11:20.763Z,99.90
2018-06-09T01:13:51.437Z,99.90
2018-06-09T01:16:20.068Z,99.90
2018-06-09T01:18:48.782Z,99.90
2018-06-09T01:21:17.449Z,99.90
2018-06-09T01:23:46.257Z,99.90
2018-06-09T01:26:14.917Z,99.90
2018-06-09T01:28:44.690Z,99.90
2018-06-09T01:31:13.312Z,99.90
2018-06-09T01:33:42.096Z,99.90
2018-06-09T01:49:13.945Z,99.90
2018-06-09T01:51:42.574Z,99.90
2018-06-09T01:54:11.226Z,99.90
2018-06-09T01:56:39.882Z,99.90
2018-06-09T01:59:10.554Z,99.90
2018-06-09T02:01:39.207Z,99.90
2018-06-09T02:04:07.933Z,99.90
2018-06-09T02:06:36.644Z,99.90
2018-06-09T02:09:08.641Z,99.90
2018-06-09T02:11:37.331Z,99.90
2018-06-09T02:14:06.080Z,99.90
2018-06-09T02:16:34.732Z,99.90
2018-06-09T02:19:03.508Z,99.90
2018-06-09T02:21:34.298Z,99.90
2018-06-09T02:24:02.877Z,99.90
2018-06-09T02:26:32.514Z,99.90
2018-06-09T02:29:01.188Z,99.90
2018-06-09T02:31:30.830Z,99.90
2018-06-09T02:33:59.552Z,99.90
2018-06-09T02:36:28.263Z,99.90
2018-06-09T02:38:56.911Z,99.90
2018-06-09T02:41:26.519Z,99.90
2018-06-09T02:43:55.211Z,99.90
2018-06-09T02:46:23.855Z,99.90
2018-06-09T02:48:53.546Z,99.90
2018-06-09T02:51:22.246Z,99.90
2018-06-09T02:53:50.912Z,99.90
2018-06-09T02:56:19.684Z,99.90
2018-06-09T02:58:48.334Z,99.90
2018-06-09T03:01:17.155Z,99.90
2018-06-09T03:03:45.951Z,99.90
2018-06-09T03:06:14.672Z,99.90
2018-06-09T03:08:43.338Z,99.90
2018-06-09T03:11:12.066Z,99.90
2018-06-09T03:13:40.747Z,99.90
2018-06-09T03:16:09.401Z,99.90
2018-06-09T03:18:38.846Z,99.90
2018-06-09T03:21:07.649Z,99.90
2018-06-09T03:23:36.333Z,99.90
2018-06-09T03:26:05.207Z,99.90
2018-06-09T03:28:34.873Z,99.90
2018-06-09T03:31:03.530Z,99.90
2018-06-09T03:33:33.194Z,99.90
2018-06-09T03:36:02.035Z,99.90
2018-06-09T03:38:30.652Z,99.90
2018-06-09T03:41:00.314Z,99.90
2018-06-09T03:43:29.066Z,99.90
2018-06-09T03:59:00.899Z,99.90
2018-06-09T04:01:29.564Z,99.90
2018-06-09T04:03:58.225Z,99.90
2018-06-09T04:06:27.897Z,99.90
2018-06-09T04:08:58.538Z,99.90
2018-06-09T04:11:27.286Z,99.90
2018-06-09T04:13:55.942Z,99.90
2018-06-09T04:16:24.776Z,99.90
2018-06-09T04:18:53.455Z,99.90
2018-06-09T04:21:22.201Z,99.90
2018-06-09T04:23:50.879Z,99.90
2018-06-09T04:26:20.536Z,99.90
2018-06-09T04:28:49.320Z,99.90
2018-06-09T04:31:18.778Z,99.90
2018-06-09T04:33:47.646Z,99.90
2018-06-09T04:36:16.379Z,99.90
2018-06-09T04:38:45.157Z,99.90
2018-06-09T04:41:13.802Z,99.90
2018-06-09T04:43:43.420Z,99.90
2018-06-09T04:46:12.008Z,99.90
2018-06-09T04:48:40.595Z,99.90
2018-06-09T04:51:09.330Z,99.90
2018-06-09T04:53:38.995Z,99.90
2018-06-09T04:56:09.762Z,99.90
2018-06-09T04:58:38.488Z,99.90
2018-06-09T05:01:07.234Z,99.90
2018-06-09T05:03:35.912Z,99.90
2018-06-09T05:06:04.719Z,99.90
2018-06-09T05:08:33.420Z,99.90
2018-06-09T05:11:03.048Z,99.90
2018-06-09T05:13:31.669Z,99.90
2018-06-09T05:16:00.335Z,99.90
2018-06-09T05:18:29.020Z,99.90
2018-06-09T05:20:57.669Z,99.90
2018-06-09T05:23:26.304Z,99.90
2018-06-09T05:25:55.910Z,99.90
2018-06-09T05:28:24.554Z,99.90
2018-06-09T05:30:53.142Z,99.90
2018-06-09T05:33:21.857Z,99.90
2018-06-09T05:35:50.584Z,99.90
2018-06-09T05:38:19.331Z,99.90
2018-06-09T05:40:50.066Z,99.90
2018-06-09T05:43:18.825Z,99.90
2018-06-09T05:45:48.590Z,99.90
2018-06-09T05:48:17.250Z,99.90
2018-06-09T05:50:46.986Z,99.90
2018-06-09T05:53:15.729Z,99.90
2018-06-09T05:55:44.407Z,99.90
2018-06-09T05:58:13.139Z,99.90
2018-06-09T06:00:41.734Z,99.90
2018-06-09T06:03:10.412Z,99.90
2018-06-09T06:05:39.194Z,99.90
2018-06-09T06:21:08.747Z,99.90
2018-06-09T06:23:37.341Z,99.90
2018-06-09T06:26:06.115Z,99.90
2018-06-09T06:28:34.810Z,99.90
2018-06-09T06:31:03.559Z,99.90
2018-06-09T06:33:32.198Z,99.90
2018-06-09T06:36:00.845Z,99.90
2018-06-09T06:38:29.444Z,99.90
2018-06-09T06:40:58.119Z,99.90
2018-06-09T06:43:27.873Z,99.90
2018-06-09T06:45:56.660Z,99.90
2018-06-09T06:48:25.287Z,99.90
2018-06-09T06:50:53.918Z,99.90
2018-06-09T06:53:22.496Z,99.90
2018-06-09T06:55:52.114Z,99.90
2018-06-09T06:58:21.801Z,99.90
2018-06-09T07:00:50.419Z,99.90
2018-06-09T07:03:21.459Z,99.90
2018-06-09T07:05:50.078Z,99.90
2018-06-09T07:08:18.723Z,99.90
2018-06-09T07:10:48.327Z,99.90
2018-06-09T07:13:16.978Z,99.90
2018-06-09T07:15:46.707Z,99.90
2018-06-09T07:18:15.347Z,99.90
2018-06-09T07:20:44.133Z,99.90
2018-06-09T07:23:12.771Z,98.90
2018-06-09T07:25:41.409Z,99.90
2018-06-09T07:28:10.045Z,99.90
2018-06-09T07:30:38.644Z,99.90
2018-06-09T07:33:08.343Z,99.90
2018-06-09T07:35:37.035Z,99.90
2018-06-09T07:38:05.730Z,99.90
2018-06-09T07:40:34.421Z,99.90
2018-06-09T07:43:03.055Z,99.90
2018-06-09T07:45:33.696Z,99.90
2018-06-09T07:50:30.606Z,99.90
2018-06-09T07:52:59.236Z,99.90
2018-06-09T07:55:28.834Z,99.90
2018-06-09T07:57:57.486Z,99.90
2018-06-09T08:00:26.672Z,99.90
2018-06-09T08:02:55.325Z,99.90
2018-06-09T08:05:24.714Z,99.90
2018-06-09T08:07:53.276Z,99.90
2018-06-09T08:10:21.946Z,99.90
2018-06-09T08:12:50.593Z,99.90
2018-06-09T08:15:19.366Z,99.90
2018-06-09T08:17:49.072Z,99.90
2018-06-09T08:20:17.839Z,99.90
2018-06-09T08:22:46.686Z,99.90
2018-06-09T08:25:15.357Z,99.90
2018-06-09T08:27:44.144Z,99.90
2018-06-09T08:30:12.843Z,99.90
2018-06-09T08:32:41.536Z,99.90
2018-06-09T08:35:10.224Z,98.90
2018-06-09T08:37:38.974Z,97.80
2018-06-09T08:40:07.674Z,98.30
2018-06-09T08:42:37.399Z,99.90
2018-06-09T08:45:06.151Z,99.90
2018-06-09T08:47:34.839Z,99.60
2018-06-09T08:50:03.599Z,99.60
2018-06-09T08:52:32.242Z,99.30
2018-06-09T08:57:29.239Z,99.30
2018-06-09T08:59:57.896Z,98.80
2018-06-09T09:02:26.694Z,99.90
2018-06-09T09:04:55.404Z,99.10
2018-06-09T09:07:24.195Z,99.30
2018-06-09T09:09:52.820Z,99.90
2018-06-09T09:12:21.656Z,98.80
2018-06-09T09:14:50.365Z,98.60
2018-06-09T09:17:19.122Z,98.60
2018-06-09T09:19:47.812Z,97.60
2018-06-09T09:22:17.531Z,97.90
2018-06-09T09:27:14.731Z,99.90
2018-06-09T09:29:43.369Z,98.70
2018-06-09T09:34:40.441Z,97.60
2018-06-09T09:37:09.091Z,98.80
2018-06-09T09:39:37.793Z,97.60
2018-06-09T09:42:06.544Z,97.70
2018-06-09T09:44:35.256Z,99.40
2018-06-09T09:47:04.030Z,99.00
2018-06-09T09:49:32.677Z,99.90
2018-06-09T09:52:01.409Z,99.60
2018-06-09T09:54:31.105Z,99.90
2018-06-09T09:57:00.916Z,99.90
2018-06-09T09:59:29.640Z,99.90
2018-06-09T10:01:58.329Z,99.90
2018-06-09T10:04:26.947Z,99.90
2018-06-09T10:06:55.561Z,99.90
2018-06-09T10:09:24.263Z,99.90
2018-06-09T10:11:53.426Z,99.90
2018-06-09T10:14:22.067Z,99.90
2018-06-09T10:16:50.819Z,99.90
2018-06-09T10:19:21.590Z,99.90
2018-06-09T10:21:51.288Z,99.90
2018-06-09T10:24:20.030Z,99.90
2018-06-09T10:26:49.760Z,99.00
2018-06-09T10:29:19.448Z,99.90
2018-06-09T10:31:48.144Z,99.90
2018-06-09T10:34:16.792Z,99.30
2018-06-09T10:36:45.551Z,99.30
2018-06-09T10:52:14.160Z,99.40
2018-06-09T10:54:42.771Z,99.90
2018-06-09T10:57:11.481Z,97.00
2018-06-09T10:59:40.169Z,99.20
2018-06-09T11:02:08.834Z,98.70
2018-06-09T11:04:38.480Z,99.60
2018-06-09T11:20:06.622Z,99.00
2018-06-09T11:22:35.282Z,99.30
2018-06-09T11:25:05.176Z,96.60
2018-06-09T11:27:33.975Z,97.60
2018-06-09T11:30:02.639Z,99.20
2018-06-09T11:32:31.312Z,99.70
2018-06-09T11:35:00.119Z,98.40
2018-06-09T11:37:28.701Z,96.70
2018-06-09T11:39:58.348Z,98.50
2018-06-09T11:42:27.029Z,98.30
2018-06-09T11:44:56.734Z,97.60
2018-06-09T11:47:26.302Z,98.70
2018-06-09T11:49:54.964Z,97.40
2018-06-09T11:52:24.667Z,98.50
2018-06-09T11:54:54.337Z,99.90
2018-06-09T11:57:23.053Z,98.50
2018-06-09T11:59:51.697Z,99.60
2018-06-09T12:02:22.792Z,99.00
2018-06-09T12:04:53.473Z,96.70
2018-06-09T12:07:23.116Z,96.90
2018-06-09T12:09:51.782Z,97.30
2018-06-09T12:12:20.466Z,96.30
2018-06-09T12:14:49.231Z,96.20
2018-06-09T12:17:17.914Z,95.80
2018-06-09T12:19:48.603Z,95.10
2018-06-09T12:24:46.279Z,96.50
2018-06-09T12:27:16.954Z,96.70
2018-06-09T12:29:45.609Z,96.20
2018-06-09T12:32:14.314Z,97.60
2018-06-09T12:34:43.118Z,94.60
2018-06-09T12:37:11.940Z,93.10
2018-06-09T12:39:40.607Z,96.00
2018-06-09T12:42:10.213Z,93.50
2018-06-09T12:44:39.905Z,94.80
2018-06-09T12:47:10.703Z,95.40
2018-06-09T12:49:41.645Z,96.20
2018-06-09T12:52:10.302Z,94.40
2018-06-09T12:54:38.905Z,95.10
2018-06-09T13:10:15.703Z,95.10
2018-06-09T13:12:44.457Z,97.00
2018-06-09T13:15:13.950Z,93.00
2018-06-09T13:17:42.715Z,92.70
2018-06-09T13:22:39.827Z,93.70
2018-06-09T13:25:09.549Z,92.40
2018-06-09T13:27:38.259Z,93.00
2018-06-09T13:30:08.265Z,96.60
2018-06-09T13:32:38.725Z,91.90
2018-06-09T13:35:09.437Z,90.00
2018-06-09T13:37:39.345Z,92.50
2018-06-09T13:40:08.114Z,92.10
2018-06-09T13:42:38.968Z,91.20
2018-06-09T13:45:07.711Z,90.30
2018-06-09T13:47:38.655Z,92.00
2018-06-09T14:16:05.902Z,92.70
2018-06-09T14:31:35.036Z,93.20
2018-06-09T14:34:05.870Z,90.40
2018-06-09T14:49:33.849Z,87.50
2018-06-09T14:52:04.059Z,85.00
2018-06-09T14:54:32.838Z,88.00
2018-06-09T14:57:06.248Z,89.10
2018-06-09T14:59:35.973Z,88.00
2018-06-09T15:02:05.424Z,87.70
2018-06-09T15:04:37.499Z,88.10
2018-06-09T15:07:06.457Z,84.50
2018-06-09T15:09:37.903Z,83.90
2018-06-09T15:12:14.374Z,81.40
2018-06-09T15:14:45.229Z,82.80
2018-06-09T15:17:15.024Z,87.90
2018-06-09T15:19:43.908Z,87.50
2018-06-09T15:22:14.541Z,83.10
2018-06-09T15:24:43.349Z,79.90
2018-06-09T15:27:13.177Z,79.60
2018-06-09T15:29:43.145Z,82.10
2018-06-09T15:32:14.877Z,83.40
2018-06-09T15:34:43.570Z,80.10
2018-06-09T15:50:10.607Z,84.30
2018-06-09T15:52:41.447Z,88.00
2018-06-09T16:08:09.499Z,87.90
2018-06-09T16:10:39.185Z,83.20
2018-06-09T16:13:09.752Z,81.00
2018-06-09T16:15:38.406Z,81.90
2018-06-09T16:18:07.174Z,81.60
2018-06-09T16:20:36.087Z,78.70
2018-06-09T16:23:04.922Z,81.80
2018-06-09T16:38:34.247Z,79.10
2018-06-09T16:41:02.914Z,80.00
2018-06-09T16:43:33.591Z,86.10
2018-06-09T16:46:02.406Z,81.90
2018-06-09T16:48:31.192Z,85.70
2018-06-09T16:50:59.931Z,80.80
2018-06-09T16:53:28.627Z,84.00
2018-06-09T17:08:55.692Z,77.40
2018-06-09T17:11:24.309Z,84.00
2018-06-09T17:13:52.981Z,78.80
2018-06-09T17:16:22.170Z,75.30
2018-06-09T17:18:51.810Z,79.90
2018-06-09T17:21:21.407Z,77.40
2018-06-09T17:23:50.062Z,79.70
2018-06-09T17:26:18.699Z,76.30
2018-06-09T17:28:47.413Z,77.80
2018-06-09T17:31:16.177Z,75.90
2018-06-09T17:33:44.844Z,74.00
2018-06-09T17:36:13.592Z,73.00
2018-06-09T17:51:40.595Z,73.50
2018-06-09T17:54:10.333Z,75.00
2018-06-09T17:56:39.967Z,86.70
2018-06-09T17:59:08.770Z,83.40
2018-06-09T18:01:39.486Z,84.20
2018-06-09T18:04:10.991Z,83.10
2018-06-09T18:06:43.047Z,83.80
2018-06-09T18:09:12.170Z,85.30
2018-06-09T18:11:40.829Z,83.70
2018-06-09T18:14:09.527Z,82.90
2018-06-09T18:16:39.395Z,83.60
2018-06-09T18:19:10.702Z,83.50
2018-06-09T18:21:42.560Z,83.40
2018-06-09T18:37:09.544Z,86.60
2018-06-09T18:39:42.563Z,88.50
2018-06-09T18:42:15.696Z,90.00
2018-06-09T18:44:44.528Z,90.40
2018-06-09T18:47:13.690Z,91.70
2018-06-09T18:49:44.145Z,93.20
2018-06-09T19:05:12.263Z,95.90
2018-06-09T19:07:41.114Z,96.00
2018-06-09T19:10:10.110Z,98.90
2018-06-09T19:12:40.071Z,99.40
2018-06-09T19:15:11.015Z,99.90
2018-06-09T19:17:43.491Z,99.90
2018-06-09T19:20:14.625Z,99.90
2018-06-09T19:35:48.652Z,99.90
2018-06-09T19:38:18.254Z,99.90
2018-06-09T19:40:49.037Z,99.90
2018-06-09T19:43:19.222Z,99.90
2018-06-09T19:45:47.989Z,99.90
2018-06-09T19:48:17.367Z,99.90
2018-06-09T20:03:46.966Z,99.90
2018-06-09T20:06:18.792Z,99.90
2018-06-09T20:21:46.271Z,99.90
2018-06-09T20:37:13.590Z,99.90
2018-06-09T20:39:42.492Z,99.90
2018-06-09T20:42:13.451Z,99.90
2018-06-09T20:44:46.523Z,99.90
2018-06-09T20:47:18.115Z,99.90
2018-06-09T20:49:46.782Z,99.90
2018-06-09T20:52:15.747Z,99.90
2018-06-09T20:54:46.782Z,99.90
2018-06-09T20:57:16.415Z,99.90
2018-06-09T20:59:46.025Z,99.90
2018-06-09T21:02:16.661Z,99.90
2018-06-09T21:04:45.369Z,99.90
2018-06-09T21:07:14.283Z,99.90
2018-06-09T21:09:46.106Z,99.90
2018-06-09T21:12:14.752Z,99.90
2018-06-09T21:14:45.686Z,99.90
2018-06-09T21:17:15.440Z,99.90
2018-06-09T21:32:44.988Z,99.90
2018-06-09T21:35:30.200Z,99.90
2018-06-09T21:38:18.148Z,99.90
2018-06-09T21:40:49.187Z,99.90
2018-06-09T21:43:24.383Z,99.90
2018-06-09T21:45:54.211Z,99.90
2018-06-09T21:48:25.324Z,99.90
2018-06-09T21:50:56.089Z,99.90
2018-06-09T21:53:24.837Z,99.90
2018-06-09T21:58:26.154Z,99.90
2018-06-09T22:00:54.804Z,99.90
2018-06-09T22:03:25.317Z,99.90
2018-06-09T22:05:54.037Z,99.90
2018-06-09T22:08:26.435Z,99.90
2018-06-09T22:10:55.152Z,99.90
2018-06-09T22:13:25.052Z,99.90
2018-06-09T22:15:53.698Z,99.90
2018-06-09T22:18:23.752Z,99.90
2018-06-09T22:20:52.330Z,99.90
2018-06-09T22:23:20.981Z,99.90
2018-06-09T22:25:55.771Z,99.90
2018-06-09T22:28:25.681Z,99.90
2018-06-09T22:30:54.356Z,99.90
2018-06-09T22:33:22.985Z,99.90
2018-06-09T22:35:51.735Z,99.90
2018-06-09T22:38:20.889Z,99.90
2018-06-09T22:43:18.507Z,99.90
2018-06-09T22:45:47.491Z,99.90
2018-06-09T22:48:16.103Z,99.90
2018-06-09T22:50:45.776Z,99.90
2018-06-09T23:08:42.447Z,99.90
2018-06-09T23:11:13.047Z,99.90
2018-06-09T23:13:41.916Z,99.90
2018-06-09T23:16:11.754Z,99.90
2018-06-09T23:18:40.334Z,99.90
2018-06-09T23:21:12.343Z,99.90
2018-06-09T23:23:40.990Z,99.90
2018-06-09T23:26:09.912Z,99.90
2018-06-09T23:41:36.865Z,99.90
2018-06-09T23:44:07.536Z,99.90
2018-06-09T23:46:36.125Z,99.90
2018-06-09T23:49:05.843Z,99.90
2018-06-09T23:51:35.167Z,99.90
2018-06-09T23:54:04.793Z,99.90
2018-06-09T23:56:35.403Z,99.90
2018-06-09T23:59:05.209Z,99.90
